Topock, Arizona
Current Conditions -  °F | °C
As of 9:56 AM on Sunday 23 Nov 2014 (Local Time) from KEED Reporting Station
Clear Clear  
Wind Chill: 66°   Ceiling: Unl
Heat Index: 66°   Visibility: 10mi
Dew Point: 20°   Wind: 23mph
Humidity: 17%   Direction: 30°NNE
Pressure: 30.22"   Gusts: 29mph
Location:  34.73°N, 114.48°W
Report Text: KEED 231656Z AUTO 03020G25KT 10SM CLR 19/M07 A3022 RMK AO2 PK WND 03026/1646 SLP214 T01891067
Loading
Personal Weather Stations






























Interactive Weather Map New forecast layout! Learn more

10-Day Weather Forecast

Advertisements
Track Severe Weather on mobile